sensor_id;sensor_type;location;lat;lon;timestamp;temperature;humidity
23156;DHT22;11746;50.876;4.246;2023-09-08T00:00:16;23.70;99.90
23156;DHT22;11746;50.876;4.246;2023-09-08T00:02:43;23.80;99.90
23156;DHT22;11746;50.876;4.246;2023-09-08T00:05:11;23.70;99.90
23156;DHT22;11746;50.876;4.246;2023-09-08T00:07:37;23.70;99.90
23156;DHT22;11746;50.876;4.246;2023-09-08T00:10:03;23.60;99.90
23156;DHT22;11746;50.876;4.246;2023-09-08T00:12:29;23.60;99.90
23156;DHT22;11746;50.876;4.246;2023-09-08T00:14:59;23.60;99.90
23156;DHT22;11746;50.876;4.246;2023-09-08T00:17:27;23.60;99.90
23156;DHT22;11746;50.876;4.246;2023-09-08T00:19:53;23.50;99.90
23156;DHT22;11746;50.876;4.246;2023-09-08T00:22:21;23.40;99.90
23156;DHT22;11746;50.876;4.246;2023-09-08T00:24:46;23.40;99.90
23156;DHT22;11746;50.876;4.246;2023-09-08T00:27:12;23.30;99.90
23156;DHT22;11746;50.876;4.246;2023-09-08T00:29:40;23.20;99.90
23156;DHT22;11746;50.876;4.246;2023-09-08T00:32:05;23.20;99.90
23156;DHT22;11746;50.876;4.246;2023-09-08T00:34:31;23.30;99.90
23156;DHT22;11746;50.876;4.246;2023-09-08T00:36:57;23.20;99.90
23156;DHT22;11746;50.876;4.246;2023-09-08T00:39:22;23.30;99.90
23156;DHT22;11746;50.876;4.246;2023-09-08T00:41:50;23.20;99.90
23156;DHT22;11746;50.876;4.246;2023-09-08T00:44:16;23.20;99.90
23156;DHT22;11746;50.876;4.246;2023-09-08T00:46:44;23.30;99.90
23156;DHT22;11746;50.876;4.246;2023-09-08T00:49:09;23.40;99.90
23156;DHT22;11746;50.876;4.246;2023-09-08T00:51:36;23.50;99.90
23156;DHT22;11746;50.876;4.246;2023-09-08T00:54:03;23.40;99.90
23156;DHT22;11746;50.876;4.246;2023-09-08T00:56:31;23.40;99.90
23156;DHT22;11746;50.876;4.246;2023-09-08T00:58:59;23.50;99.90
23156;DHT22;11746;50.876;4.246;2023-09-08T01:01:24;23.40;99.90
23156;DHT22;11746;50.876;4.246;2023-09-08T01:03:50;23.40;99.90
23156;DHT22;11746;50.876;4.246;2023-09-08T01:06:16;23.30;99.90
23156;DHT22;11746;50.876;4.246;2023-09-08T01:08:42;23.30;99.90
23156;DHT22;11746;50.876;4.246;2023-09-08T01:11:09;23.40;99.90
23156;DHT22;11746;50.876;4.246;2023-09-08T01:13:37;23.20;99.90
23156;DHT22;11746;50.876;4.246;2023-09-08T01:16:05;23.10;99.90
23156;DHT22;11746;50.876;4.246;2023-09-08T01:18:30;23.10;99.90
23156;DHT22;11746;50.876;4.246;2023-09-08T01:26:17;22.80;99.90
23156;DHT22;11746;50.876;4.246;2023-09-08T01:28:46;22.90;99.90
23156;DHT22;11746;50.876;4.246;2023-09-08T01:31:12;23.00;99.90
23156;DHT22;11746;50.876;4.246;2023-09-08T01:33:38;23.00;99.90
23156;DHT22;11746;50.876;4.246;2023-09-08T01:36:04;22.90;99.90
23156;DHT22;11746;50.876;4.246;2023-09-08T01:38:34;22.90;99.90
23156;DHT22;11746;50.876;4.246;2023-09-08T01:41:00;22.70;99.90
23156;DHT22;11746;50.876;4.246;2023-09-08T01:43:27;22.80;99.90
23156;DHT22;11746;50.876;4.246;2023-09-08T01:45:53;22.70;99.90
23156;DHT22;11746;50.876;4.246;2023-09-08T01:48:18;22.60;99.90
23156;DHT22;11746;50.876;4.246;2023-09-08T01:50:46;22.60;99.90
23156;DHT22;11746;50.876;4.246;2023-09-08T01:53:13;22.60;99.90
23156;DHT22;11746;50.876;4.246;2023-09-08T01:55:38;22.60;99.90
23156;DHT22;11746;50.876;4.246;2023-09-08T01:58:04;22.50;99.90
23156;DHT22;11746;50.876;4.246;2023-09-08T02:00:30;22.60;99.90
23156;DHT22;11746;50.876;4.246;2023-09-08T02:02:57;22.50;99.90
23156;DHT22;11746;50.876;4.246;2023-09-08T02:05:23;22.50;99.90
23156;DHT22;11746;50.876;4.246;2023-09-08T02:07:52;22.40;99.90
23156;DHT22;11746;50.876;4.246;2023-09-08T02:10:17;22.40;99.90
23156;DHT22;11746;50.876;4.246;2023-09-08T02:12:46;22.40;99.90
23156;DHT22;11746;50.876;4.246;2023-09-08T02:15:14;22.50;99.90
23156;DHT22;11746;50.876;4.246;2023-09-08T02:17:41;22.50;99.90
23156;DHT22;11746;50.876;4.246;2023-09-08T02:20:07;22.50;99.90
23156;DHT22;11746;50.876;4.246;2023-09-08T02:22:33;22.50;99.90
23156;DHT22;11746;50.876;4.246;2023-09-08T02:24:58;22.40;99.90
23156;DHT22;11746;50.876;4.246;2023-09-08T02:27:24;22.40;99.90
23156;DHT22;11746;50.876;4.246;2023-09-08T02:29:50;22.50;99.90
23156;DHT22;11746;50.876;4.246;2023-09-08T02:32:15;22.50;99.90
23156;DHT22;11746;50.876;4.246;2023-09-08T02:34:41;22.60;99.90
23156;DHT22;11746;50.876;4.246;2023-09-08T02:37:08;22.50;99.90
23156;DHT22;11746;50.876;4.246;2023-09-08T02:39:36;22.50;99.90
23156;DHT22;11746;50.876;4.246;2023-09-08T02:42:01;22.60;99.90
23156;DHT22;11746;50.876;4.246;2023-09-08T02:44:27;22.60;99.90
23156;DHT22;11746;50.876;4.246;2023-09-08T02:46:55;22.60;99.90
23156;DHT22;11746;50.876;4.246;2023-09-08T02:49:25;22.60;99.90
23156;DHT22;11746;50.876;4.246;2023-09-08T02:51:53;22.60;99.90
23156;DHT22;11746;50.876;4.246;2023-09-08T02:54:21;22.50;99.90
23156;DHT22;11746;50.876;4.246;2023-09-08T02:56:46;22.40;99.90
23156;DHT22;11746;50.876;4.246;2023-09-08T02:59:12;22.40;99.90
23156;DHT22;11746;50.876;4.246;2023-09-08T03:01:40;22.20;99.90
23156;DHT22;11746;50.876;4.246;2023-09-08T03:04:05;22.20;99.90
23156;DHT22;11746;50.876;4.246;2023-09-08T03:06:31;22.30;99.90
23156;DHT22;11746;50.876;4.246;2023-09-08T03:08:58;22.20;99.90
23156;DHT22;11746;50.876;4.246;2023-09-08T03:11:24;22.20;99.90
23156;DHT22;11746;50.876;4.246;2023-09-08T03:13:52;22.20;99.90
23156;DHT22;11746;50.876;4.246;2023-09-08T03:16:20;22.40;99.90
23156;DHT22;11746;50.876;4.246;2023-09-08T03:18:45;22.30;99.90
23156;DHT22;11746;50.876;4.246;2023-09-08T03:21:14;22.30;99.90
23156;DHT22;11746;50.876;4.246;2023-09-08T03:23:41;22.30;99.90
23156;DHT22;11746;50.876;4.246;2023-09-08T03:26:08;22.30;99.90
23156;DHT22;11746;50.876;4.246;2023-09-08T03:28:35;22.20;99.90
23156;DHT22;11746;50.876;4.246;2023-09-08T03:31:01;22.20;99.90
23156;DHT22;11746;50.876;4.246;2023-09-08T03:33:29;22.20;99.90
23156;DHT22;11746;50.876;4.246;2023-09-08T03:35:55;22.30;99.90
23156;DHT22;11746;50.876;4.246;2023-09-08T03:38:21;22.20;99.90
23156;DHT22;11746;50.876;4.246;2023-09-08T03:40:47;22.10;99.90
23156;DHT22;11746;50.876;4.246;2023-09-08T03:43:12;22.00;99.90
23156;DHT22;11746;50.876;4.246;2023-09-08T03:45:38;22.00;99.90
23156;DHT22;11746;50.876;4.246;2023-09-08T03:48:06;21.90;99.90
23156;DHT22;11746;50.876;4.246;2023-09-08T03:50:32;21.90;99.90
23156;DHT22;11746;50.876;4.246;2023-09-08T03:52:58;21.90;99.90
23156;DHT22;11746;50.876;4.246;2023-09-08T03:55:23;21.90;99.90
23156;DHT22;11746;50.876;4.246;2023-09-08T03:57:49;21.90;99.90
23156;DHT22;11746;50.876;4.246;2023-09-08T04:00:15;21.80;99.90
23156;DHT22;11746;50.876;4.246;2023-09-08T04:02:46;21.70;99.90
23156;DHT22;11746;50.876;4.246;2023-09-08T04:05:14;21.60;99.90
23156;DHT22;11746;50.876;4.246;2023-09-08T04:07:39;21.60;99.90
23156;DHT22;11746;50.876;4.246;2023-09-08T04:10:06;21.60;99.90
23156;DHT22;11746;50.876;4.246;2023-09-08T04:12:31;21.60;99.90
23156;DHT22;11746;50.876;4.246;2023-09-08T04:14:57;21.60;99.90
23156;DHT22;11746;50.876;4.246;2023-09-08T04:17:25;21.50;99.90
23156;DHT22;11746;50.876;4.246;2023-09-08T04:19:51;21.50;99.90
23156;DHT22;11746;50.876;4.246;2023-09-08T04:22:19;21.70;99.90
23156;DHT22;11746;50.876;4.246;2023-09-08T04:24:44;21.70;99.90
23156;DHT22;11746;50.876;4.246;2023-09-08T04:27:10;21.50;99.90
23156;DHT22;11746;50.876;4.246;2023-09-08T04:29:36;21.50;99.90
23156;DHT22;11746;50.876;4.246;2023-09-08T04:32:02;21.50;99.90
23156;DHT22;11746;50.876;4.246;2023-09-08T04:34:39;21.40;99.90
23156;DHT22;11746;50.876;4.246;2023-09-08T04:37:05;21.30;99.90
23156;DHT22;11746;50.876;4.246;2023-09-08T04:39:34;21.30;99.90
23156;DHT22;11746;50.876;4.246;2023-09-08T04:42:02;21.30;99.90
23156;DHT22;11746;50.876;4.246;2023-09-08T04:44:28;21.20;99.90
23156;DHT22;11746;50.876;4.246;2023-09-08T04:46:56;21.20;99.90
23156;DHT22;11746;50.876;4.246;2023-09-08T04:49:24;21.30;99.90
23156;DHT22;11746;50.876;4.246;2023-09-08T04:51:50;21.30;99.90
23156;DHT22;11746;50.876;4.246;2023-09-08T04:54:16;21.20;99.90
23156;DHT22;11746;50.876;4.246;2023-09-08T04:56:41;21.20;99.90
23156;DHT22;11746;50.876;4.246;2023-09-08T04:59:07;21.20;99.90
23156;DHT22;11746;50.876;4.246;2023-09-08T05:01:33;21.20;99.90
23156;DHT22;11746;50.876;4.246;2023-09-08T05:03:59;21.30;99.90
23156;DHT22;11746;50.876;4.246;2023-09-08T05:06:25;21.20;99.90
23156;DHT22;11746;50.876;4.246;2023-09-08T05:08:51;21.10;99.90
23156;DHT22;11746;50.876;4.246;2023-09-08T05:11:16;21.10;99.90
23156;DHT22;11746;50.876;4.246;2023-09-08T05:13:42;21.10;99.90
23156;DHT22;11746;50.876;4.246;2023-09-08T05:16:08;21.10;99.90
23156;DHT22;11746;50.876;4.246;2023-09-08T05:18:40;21.10;99.90
23156;DHT22;11746;50.876;4.246;2023-09-08T05:21:07;21.10;99.90
23156;DHT22;11746;50.876;4.246;2023-09-08T05:23:32;21.00;99.90
23156;DHT22;11746;50.876;4.246;2023-09-08T05:25:59;21.00;99.90
23156;DHT22;11746;50.876;4.246;2023-09-08T05:28:24;21.00;99.90
23156;DHT22;11746;50.876;4.246;2023-09-08T05:30:53;21.00;99.90
23156;DHT22;11746;50.876;4.246;2023-09-08T05:33:19;21.00;99.90
23156;DHT22;11746;50.876;4.246;2023-09-08T05:35:47;21.00;99.90
23156;DHT22;11746;50.876;4.246;2023-09-08T05:38:12;21.00;99.90
23156;DHT22;11746;50.876;4.246;2023-09-08T05:40:38;21.20;99.90
23156;DHT22;11746;50.876;4.246;2023-09-08T05:43:04;21.30;99.90
23156;DHT22;11746;50.876;4.246;2023-09-08T05:45:31;21.30;99.90
23156;DHT22;11746;50.876;4.246;2023-09-08T05:47:57;21.30;99.90
23156;DHT22;11746;50.876;4.246;2023-09-08T05:50:25;21.30;99.90
23156;DHT22;11746;50.876;4.246;2023-09-08T05:52:51;21.40;99.90
23156;DHT22;11746;50.876;4.246;2023-09-08T05:55:17;21.40;99.90
23156;DHT22;11746;50.876;4.246;2023-09-08T05:57:43;21.50;99.90
23156;DHT22;11746;50.876;4.246;2023-09-08T06:00:08;21.50;99.90
23156;DHT22;11746;50.876;4.246;2023-09-08T06:02:34;21.60;99.90
23156;DHT22;11746;50.876;4.246;2023-09-08T06:05:00;21.60;99.90
23156;DHT22;11746;50.876;4.246;2023-09-08T06:07:25;21.70;99.90
23156;DHT22;11746;50.876;4.246;2023-09-08T06:09:51;21.80;99.90
23156;DHT22;11746;50.876;4.246;2023-09-08T06:12:16;21.90;99.90
23156;DHT22;11746;50.876;4.246;2023-09-08T06:14:43;22.00;99.90
23156;DHT22;11746;50.876;4.246;2023-09-08T06:17:10;22.00;99.90
23156;DHT22;11746;50.876;4.246;2023-09-08T06:19:37;22.10;99.90
23156;DHT22;11746;50.876;4.246;2023-09-08T06:22:03;22.10;99.90
23156;DHT22;11746;50.876;4.246;2023-09-08T06:24:29;22.10;99.90
23156;DHT22;11746;50.876;4.246;2023-09-08T06:26:54;22.20;99.90
23156;DHT22;11746;50.876;4.246;2023-09-08T06:29:23;22.10;99.90
23156;DHT22;11746;50.876;4.246;2023-09-08T06:31:48;22.10;99.90
23156;DHT22;11746;50.876;4.246;2023-09-08T06:34:16;22.20;99.90
23156;DHT22;11746;50.876;4.246;2023-09-08T06:36:42;22.30;99.90
23156;DHT22;11746;50.876;4.246;2023-09-08T06:39:07;22.30;99.90
23156;DHT22;11746;50.876;4.246;2023-09-08T06:41:35;22.40;99.90
23156;DHT22;11746;50.876;4.246;2023-09-08T06:44:03;22.40;99.90
23156;DHT22;11746;50.876;4.246;2023-09-08T06:46:31;22.50;99.90
23156;DHT22;11746;50.876;4.246;2023-09-08T06:48:57;22.40;99.90
23156;DHT22;11746;50.876;4.246;2023-09-08T06:51:22;22.50;99.90
23156;DHT22;11746;50.876;4.246;2023-09-08T06:53:59;22.50;99.90
23156;DHT22;11746;50.876;4.246;2023-09-08T06:56:25;22.70;99.90
23156;DHT22;11746;50.876;4.246;2023-09-08T06:58:51;22.80;99.90
23156;DHT22;11746;50.876;4.246;2023-09-08T07:01:19;22.70;99.90
23156;DHT22;11746;50.876;4.246;2023-09-08T07:03:47;22.50;99.90
23156;DHT22;11746;50.876;4.246;2023-09-08T07:06:13;22.60;99.90
23156;DHT22;11746;50.876;4.246;2023-09-08T07:08:38;22.70;99.90
23156;DHT22;11746;50.876;4.246;2023-09-08T07:11:04;22.90;99.90
23156;DHT22;11746;50.876;4.246;2023-09-08T07:13:30;22.90;99.90
23156;DHT22;11746;50.876;4.246;2023-09-08T07:15:55;23.00;99.90
23156;DHT22;11746;50.876;4.246;2023-09-08T07:18:21;23.00;99.90
23156;DHT22;11746;50.876;4.246;2023-09-08T07:20:49;22.90;99.90
23156;DHT22;11746;50.876;4.246;2023-09-08T07:23:17;22.90;99.90
23156;DHT22;11746;50.876;4.246;2023-09-08T07:25:47;22.70;99.90
23156;DHT22;11746;50.876;4.246;2023-09-08T07:28:12;22.80;99.90
23156;DHT22;11746;50.876;4.246;2023-09-08T07:30:38;22.90;99.90
23156;DHT22;11746;50.876;4.246;2023-09-08T07:33:04;23.00;99.90
23156;DHT22;11746;50.876;4.246;2023-09-08T07:35:31;23.10;99.90
23156;DHT22;11746;50.876;4.246;2023-09-08T07:37:57;23.10;99.90
23156;DHT22;11746;50.876;4.246;2023-09-08T07:40:25;23.20;99.90
23156;DHT22;11746;50.876;4.246;2023-09-08T07:42:53;23.10;99.90
23156;DHT22;11746;50.876;4.246;2023-09-08T07:45:18;23.10;99.90
23156;DHT22;11746;50.876;4.246;2023-09-08T07:47:46;23.20;99.90
23156;DHT22;11746;50.876;4.246;2023-09-08T07:50:26;23.10;99.90
23156;DHT22;11746;50.876;4.246;2023-09-08T07:52:54;23.30;99.90
23156;DHT22;11746;50.876;4.246;2023-09-08T07:55:20;23.50;99.90
23156;DHT22;11746;50.876;4.246;2023-09-08T07:57:49;23.50;99.90
23156;DHT22;11746;50.876;4.246;2023-09-08T08:00:15;23.50;99.90
23156;DHT22;11746;50.876;4.246;2023-09-08T08:02:49;23.50;99.90
23156;DHT22;11746;50.876;4.246;2023-09-08T08:05:15;23.60;99.90
23156;DHT22;11746;50.876;4.246;2023-09-08T08:07:44;23.60;99.90
23156;DHT22;11746;50.876;4.246;2023-09-08T08:10:12;23.60;99.90
23156;DHT22;11746;50.876;4.246;2023-09-08T08:12:39;23.70;99.90
23156;DHT22;11746;50.876;4.246;2023-09-08T08:15:08;23.80;99.90
23156;DHT22;11746;50.876;4.246;2023-09-08T08:17:36;23.80;99.90
23156;DHT22;11746;50.876;4.246;2023-09-08T08:20:05;24.00;99.90
23156;DHT22;11746;50.876;4.246;2023-09-08T08:22:35;24.10;99.90
23156;DHT22;11746;50.876;4.246;2023-09-08T08:25:01;24.40;99.90
23156;DHT22;11746;50.876;4.246;2023-09-08T08:27:28;24.40;99.90
23156;DHT22;11746;50.876;4.246;2023-09-08T08:29:56;24.30;99.90
23156;DHT22;11746;50.876;4.246;2023-09-08T08:32:23;24.40;99.90
23156;DHT22;11746;50.876;4.246;2023-09-08T08:34:48;24.30;99.90
23156;DHT22;11746;50.876;4.246;2023-09-08T08:37:14;24.30;99.90
23156;DHT22;11746;50.876;4.246;2023-09-08T08:39:44;24.60;99.90
23156;DHT22;11746;50.876;4.246;2023-09-08T08:42:10;24.90;99.90
23156;DHT22;11746;50.876;4.246;2023-09-08T08:44:38;25.00;99.90
23156;DHT22;11746;50.876;4.246;2023-09-08T08:47:11;25.10;99.90
23156;DHT22;11746;50.876;4.246;2023-09-08T08:49:43;25.00;99.90
23156;DHT22;11746;50.876;4.246;2023-09-08T08:52:13;24.80;99.90
23156;DHT22;11746;50.876;4.246;2023-09-08T08:54:40;24.80;99.90
23156;DHT22;11746;50.876;4.246;2023-09-08T08:57:08;24.80;99.90
23156;DHT22;11746;50.876;4.246;2023-09-08T08:59:36;24.80;99.90
23156;DHT22;11746;50.876;4.246;2023-09-08T09:02:02;24.90;99.90
23156;DHT22;11746;50.876;4.246;2023-09-08T09:04:33;25.10;99.90
23156;DHT22;11746;50.876;4.246;2023-09-08T09:07:03;25.20;99.90
23156;DHT22;11746;50.876;4.246;2023-09-08T09:09:29;25.20;99.90
23156;DHT22;11746;50.876;4.246;2023-09-08T09:11:55;25.40;99.90
23156;DHT22;11746;50.876;4.246;2023-09-08T09:14:25;25.60;99.90
23156;DHT22;11746;50.876;4.246;2023-09-08T09:16:56;25.70;99.90
23156;DHT22;11746;50.876;4.246;2023-09-08T09:19:23;25.90;99.90
23156;DHT22;11746;50.876;4.246;2023-09-08T09:21:57;25.90;99.90
23156;DHT22;11746;50.876;4.246;2023-09-08T09:27:03;25.90;99.90
23156;DHT22;11746;50.876;4.246;2023-09-08T09:29:31;26.20;99.90
23156;DHT22;11746;50.876;4.246;2023-09-08T09:32:04;26.40;99.90
23156;DHT22;11746;50.876;4.246;2023-09-08T09:34:32;26.40;99.90
23156;DHT22;11746;50.876;4.246;2023-09-08T09:37:00;26.50;99.90
23156;DHT22;11746;50.876;4.246;2023-09-08T09:39:26;26.70;99.90
23156;DHT22;11746;50.876;4.246;2023-09-08T09:41:56;26.70;99.90
23156;DHT22;11746;50.876;4.246;2023-09-08T09:44:23;27.00;99.90
23156;DHT22;11746;50.876;4.246;2023-09-08T09:46:50;27.10;99.90
23156;DHT22;11746;50.876;4.246;2023-09-08T09:49:17;27.00;99.90
23156;DHT22;11746;50.876;4.246;2023-09-08T09:51:52;27.00;99.90
23156;DHT22;11746;50.876;4.246;2023-09-08T09:54:20;27.00;99.90
23156;DHT22;11746;50.876;4.246;2023-09-08T09:56:51;27.20;99.90
23156;DHT22;11746;50.876;4.246;2023-09-08T09:59:20;27.30;99.90
23156;DHT22;11746;50.876;4.246;2023-09-08T10:01:50;27.50;99.90
23156;DHT22;11746;50.876;4.246;2023-09-08T10:04:16;27.50;99.90
23156;DHT22;11746;50.876;4.246;2023-09-08T10:06:45;27.60;99.90
23156;DHT22;11746;50.876;4.246;2023-09-08T10:09:13;27.60;99.90
23156;DHT22;11746;50.876;4.246;2023-09-08T10:11:46;27.50;99.90
23156;DHT22;11746;50.876;4.246;2023-09-08T10:14:15;27.60;99.90
23156;DHT22;11746;50.876;4.246;2023-09-08T10:16:45;27.60;99.90
23156;DHT22;11746;50.876;4.246;2023-09-08T10:19:16;27.90;99.90
23156;DHT22;11746;50.876;4.246;2023-09-08T10:21:48;28.00;99.90
23156;DHT22;11746;50.876;4.246;2023-09-08T10:24:21;28.00;99.90
23156;DHT22;11746;50.876;4.246;2023-09-08T10:26:58;28.20;99.90
23156;DHT22;11746;50.876;4.246;2023-09-08T10:29:27;28.20;99.90
23156;DHT22;11746;50.876;4.246;2023-09-08T10:31:55;28.30;99.90
23156;DHT22;11746;50.876;4.246;2023-09-08T10:34:23;28.50;99.90
23156;DHT22;11746;50.876;4.246;2023-09-08T10:36:50;28.60;99.90
23156;DHT22;11746;50.876;4.246;2023-09-08T10:45:00;28.70;99.90
23156;DHT22;11746;50.876;4.246;2023-09-08T10:47:39;28.80;99.90
23156;DHT22;11746;50.876;4.246;2023-09-08T10:50:07;28.80;99.90
23156;DHT22;11746;50.876;4.246;2023-09-08T10:52:35;29.10;99.90
23156;DHT22;11746;50.876;4.246;2023-09-08T10:55:05;29.20;99.90
23156;DHT22;11746;50.876;4.246;2023-09-08T10:57:34;29.40;99.90
23156;DHT22;11746;50.876;4.246;2023-09-08T11:00:06;29.60;99.90
23156;DHT22;11746;50.876;4.246;2023-09-08T11:02:50;29.90;99.90
23156;DHT22;11746;50.876;4.246;2023-09-08T11:05:18;30.40;99.90
23156;DHT22;11746;50.876;4.246;2023-09-08T11:07:47;30.00;99.90
23156;DHT22;11746;50.876;4.246;2023-09-08T11:10:14;30.00;99.90
23156;DHT22;11746;50.876;4.246;2023-09-08T11:12:43;29.70;99.90
23156;DHT22;11746;50.876;4.246;2023-09-08T11:15:09;30.00;99.90
23156;DHT22;11746;50.876;4.246;2023-09-08T11:17:38;30.40;99.90
23156;DHT22;11746;50.876;4.246;2023-09-08T11:20:08;30.60;99.90
23156;DHT22;11746;50.876;4.246;2023-09-08T11:22:39;30.70;99.90
23156;DHT22;11746;50.876;4.246;2023-09-08T11:25:07;30.60;99.90
23156;DHT22;11746;50.876;4.246;2023-09-08T11:27:33;30.90;99.90
23156;DHT22;11746;50.876;4.246;2023-09-08T11:29:59;31.10;99.90
23156;DHT22;11746;50.876;4.246;2023-09-08T11:32:27;31.30;99.90
23156;DHT22;11746;50.876;4.246;2023-09-08T11:35:04;31.30;99.90
23156;DHT22;11746;50.876;4.246;2023-09-08T11:37:30;31.30;99.90
23156;DHT22;11746;50.876;4.246;2023-09-08T11:39:55;31.50;99.90
23156;DHT22;11746;50.876;4.246;2023-09-08T11:42:21;31.20;99.90
23156;DHT22;11746;50.876;4.246;2023-09-08T11:44:48;30.90;99.90
23156;DHT22;11746;50.876;4.246;2023-09-08T11:47:17;30.60;99.90
23156;DHT22;11746;50.876;4.246;2023-09-08T11:49:43;30.80;99.90
23156;DHT22;11746;50.876;4.246;2023-09-08T11:52:10;31.00;99.90
23156;DHT22;11746;50.876;4.246;2023-09-08T11:54:36;31.10;99.90
23156;DHT22;11746;50.876;4.246;2023-09-08T11:57:07;31.40;99.90
23156;DHT22;11746;50.876;4.246;2023-09-08T11:59:40;31.90;99.90
23156;DHT22;11746;50.876;4.246;2023-09-08T12:02:08;31.80;99.90
23156;DHT22;11746;50.876;4.246;2023-09-08T12:04:38;31.70;99.90
23156;DHT22;11746;50.876;4.246;2023-09-08T12:07:06;31.80;99.90
23156;DHT22;11746;50.876;4.246;2023-09-08T12:09:32;31.60;99.90
23156;DHT22;11746;50.876;4.246;2023-09-08T12:12:03;31.60;99.90
23156;DHT22;11746;50.876;4.246;2023-09-08T12:14:40;31.80;99.90
23156;DHT22;11746;50.876;4.246;2023-09-08T12:17:07;31.80;99.90
23156;DHT22;11746;50.876;4.246;2023-09-08T12:19:38;31.70;99.90
23156;DHT22;11746;50.876;4.246;2023-09-08T12:22:05;32.00;99.90
23156;DHT22;11746;50.876;4.246;2023-09-08T12:27:22;31.80;99.90
23156;DHT22;11746;50.876;4.246;2023-09-08T12:30:00;32.30;99.90
23156;DHT22;11746;50.876;4.246;2023-09-08T12:32:31;32.80;99.90
23156;DHT22;11746;50.876;4.246;2023-09-08T12:34:58;32.80;99.90
23156;DHT22;11746;50.876;4.246;2023-09-08T12:37:27;32.40;99.90
23156;DHT22;11746;50.876;4.246;2023-09-08T12:39:57;32.30;99.90
23156;DHT22;11746;50.876;4.246;2023-09-08T12:42:22;32.30;99.90
23156;DHT22;11746;50.876;4.246;2023-09-08T12:44:51;32.50;99.90
23156;DHT22;11746;50.876;4.246;2023-09-08T12:47:17;32.50;99.90
23156;DHT22;11746;50.876;4.246;2023-09-08T12:49:45;32.70;99.90
23156;DHT22;11746;50.876;4.246;2023-09-08T12:52:13;33.00;99.90
23156;DHT22;11746;50.876;4.246;2023-09-08T12:54:41;33.60;99.90
23156;DHT22;11746;50.876;4.246;2023-09-08T12:57:06;33.80;99.60
23156;DHT22;11746;50.876;4.246;2023-09-08T12:59:32;33.80;99.50
23156;DHT22;11746;50.876;4.246;2023-09-08T13:01:57;33.60;98.30
23156;DHT22;11746;50.876;4.246;2023-09-08T13:04:25;33.50;99.70
23156;DHT22;11746;50.876;4.246;2023-09-08T13:06:51;33.70;98.80
23156;DHT22;11746;50.876;4.246;2023-09-08T13:09:17;33.50;99.10
23156;DHT22;11746;50.876;4.246;2023-09-08T13:11:42;33.50;99.20
23156;DHT22;11746;50.876;4.246;2023-09-08T13:14:12;33.50;99.20
23156;DHT22;11746;50.876;4.246;2023-09-08T13:16:38;33.60;98.40
23156;DHT22;11746;50.876;4.246;2023-09-08T13:19:04;33.90;98.40
23156;DHT22;11746;50.876;4.246;2023-09-08T13:21:31;33.80;97.50
23156;DHT22;11746;50.876;4.246;2023-09-08T13:23:59;33.40;98.30
23156;DHT22;11746;50.876;4.246;2023-09-08T13:26:25;33.40;98.00
23156;DHT22;11746;50.876;4.246;2023-09-08T13:28:53;33.50;97.90
23156;DHT22;11746;50.876;4.246;2023-09-08T13:31:18;34.00;98.70
23156;DHT22;11746;50.876;4.246;2023-09-08T13:33:48;34.20;97.70
23156;DHT22;11746;50.876;4.246;2023-09-08T13:36:14;34.00;97.80
23156;DHT22;11746;50.876;4.246;2023-09-08T13:38:41;34.10;97.80
23156;DHT22;11746;50.876;4.246;2023-09-08T13:41:07;34.10;97.90
23156;DHT22;11746;50.876;4.246;2023-09-08T13:43:33;34.10;98.50
23156;DHT22;11746;50.876;4.246;2023-09-08T13:45:58;34.10;98.20
23156;DHT22;11746;50.876;4.246;2023-09-08T13:48:24;34.00;98.10
23156;DHT22;11746;50.876;4.246;2023-09-08T13:50:54;33.90;97.60
23156;DHT22;11746;50.876;4.246;2023-09-08T13:53:21;33.60;98.50
23156;DHT22;11746;50.876;4.246;2023-09-08T13:55:46;34.10;97.80
23156;DHT22;11746;50.876;4.246;2023-09-08T13:58:15;34.30;97.20
23156;DHT22;11746;50.876;4.246;2023-09-08T14:00:43;34.70;96.90
23156;DHT22;11746;50.876;4.246;2023-09-08T14:03:09;34.70;96.70
23156;DHT22;11746;50.876;4.246;2023-09-08T14:05:39;35.00;96.20
23156;DHT22;11746;50.876;4.246;2023-09-08T14:08:05;34.70;95.70
23156;DHT22;11746;50.876;4.246;2023-09-08T14:10:31;34.80;97.20
23156;DHT22;11746;50.876;4.246;2023-09-08T14:12:58;35.00;96.30
23156;DHT22;11746;50.876;4.246;2023-09-08T14:15:24;35.40;95.80
23156;DHT22;11746;50.876;4.246;2023-09-08T14:17:50;35.80;95.20
23156;DHT22;11746;50.876;4.246;2023-09-08T14:20:15;35.80;95.00
23156;DHT22;11746;50.876;4.246;2023-09-08T14:22:41;36.20;94.80
23156;DHT22;11746;50.876;4.246;2023-09-08T14:25:07;36.30;94.60
23156;DHT22;11746;50.876;4.246;2023-09-08T14:27:33;35.90;94.80
23156;DHT22;11746;50.876;4.246;2023-09-08T14:30:00;35.80;94.30
23156;DHT22;11746;50.876;4.246;2023-09-08T14:32:26;35.80;94.90
23156;DHT22;11746;50.876;4.246;2023-09-08T14:34:54;36.20;94.10
23156;DHT22;11746;50.876;4.246;2023-09-08T14:37:22;36.30;93.40
23156;DHT22;11746;50.876;4.246;2023-09-08T14:39:48;35.90;92.60
23156;DHT22;11746;50.876;4.246;2023-09-08T14:42:16;36.10;93.00
23156;DHT22;11746;50.876;4.246;2023-09-08T14:44:42;35.40;92.70
23156;DHT22;11746;50.876;4.246;2023-09-08T14:47:07;34.90;93.40
23156;DHT22;11746;50.876;4.246;2023-09-08T14:49:34;35.10;93.40
23156;DHT22;11746;50.876;4.246;2023-09-08T14:51:59;35.50;93.20
23156;DHT22;11746;50.876;4.246;2023-09-08T14:54:25;35.50;93.00
23156;DHT22;11746;50.876;4.246;2023-09-08T14:56:55;35.50;93.80
23156;DHT22;11746;50.876;4.246;2023-09-08T14:59:23;36.00;93.30
23156;DHT22;11746;50.876;4.246;2023-09-08T15:01:49;35.70;93.80
23156;DHT22;11746;50.876;4.246;2023-09-08T15:04:16;36.00;93.30
23156;DHT22;11746;50.876;4.246;2023-09-08T15:06:42;36.30;92.80
23156;DHT22;11746;50.876;4.246;2023-09-08T15:09:07;36.80;91.50
23156;DHT22;11746;50.876;4.246;2023-09-08T15:11:33;36.60;91.70
23156;DHT22;11746;50.876;4.246;2023-09-08T15:14:01;36.70;91.60
23156;DHT22;11746;50.876;4.246;2023-09-08T15:16:27;36.90;92.30
23156;DHT22;11746;50.876;4.246;2023-09-08T15:18:52;37.10;91.40
23156;DHT22;11746;50.876;4.246;2023-09-08T15:21:18;37.30;91.50
23156;DHT22;11746;50.876;4.246;2023-09-08T15:23:49;37.40;91.40
23156;DHT22;11746;50.876;4.246;2023-09-08T15:26:14;37.90;91.30
23156;DHT22;11746;50.876;4.246;2023-09-08T15:28:40;38.50;90.00
23156;DHT22;11746;50.876;4.246;2023-09-08T15:31:06;38.40;89.60
23156;DHT22;11746;50.876;4.246;2023-09-08T15:33:34;38.20;89.80
23156;DHT22;11746;50.876;4.246;2023-09-08T15:36:00;38.40;90.30
23156;DHT22;11746;50.876;4.246;2023-09-08T15:38:25;38.30;88.50
23156;DHT22;11746;50.876;4.246;2023-09-08T15:43:43;38.20;88.50
23156;DHT22;11746;50.876;4.246;2023-09-08T15:46:09;37.80;88.70
23156;DHT22;11746;50.876;4.246;2023-09-08T15:48:36;37.40;88.80